createdAt,value
2017-11-08T00:00:42.211Z,7.89
2017-11-08T00:03:09.967Z,7.98
2017-11-08T00:05:37.570Z,7.90
2017-11-08T00:08:05.151Z,7.92
2017-11-08T00:10:32.751Z,7.93
2017-11-08T00:13:00.347Z,7.93
2017-11-08T00:15:27.890Z,7.92
2017-11-08T00:17:55.454Z,8.02
2017-11-08T00:20:23.077Z,8.00
2017-11-08T00:22:50.629Z,7.93
2017-11-08T00:25:18.278Z,8.01
2017-11-08T00:27:45.906Z,7.91
2017-11-08T00:30:13.650Z,7.83
2017-11-08T00:32:41.224Z,7.93
2017-11-08T00:35:08.893Z,8.04
2017-11-08T00:37:36.499Z,8.03
2017-11-08T00:40:04.130Z,8.06
2017-11-08T00:42:31.709Z,7.95
2017-11-08T00:44:59.282Z,8.00
2017-11-08T00:47:27.246Z,7.97
2017-11-08T00:49:54.863Z,7.90
2017-11-08T00:52:22.460Z,7.79
2017-11-08T00:54:50.066Z,7.86
2017-11-08T00:57:23.250Z,7.82
2017-11-08T00:59:50.863Z,7.92
2017-11-08T01:02:18.424Z,7.93
2017-11-08T01:04:46.240Z,7.97
2017-11-08T01:07:13.916Z,8.00
2017-11-08T01:09:41.533Z,8.07
2017-11-08T01:12:09.378Z,7.99
2017-11-08T01:14:36.935Z,7.92
2017-11-08T01:17:08.384Z,7.84
2017-11-08T01:19:35.968Z,7.85
2017-11-08T01:22:03.541Z,7.90
2017-11-08T01:24:31.134Z,7.93
2017-11-08T01:26:58.726Z,7.94
2017-11-08T01:29:26.313Z,7.86
2017-11-08T01:31:53.876Z,7.82
2017-11-08T01:34:21.470Z,7.86
2017-11-08T01:39:49.366Z,8.07
2017-11-08T01:42:16.976Z,8.13
2017-11-08T01:44:49.480Z,8.19
2017-11-08T01:47:17.064Z,8.34
2017-11-08T01:49:47.214Z,8.12
2017-11-08T01:52:16.602Z,8.14
2017-11-08T01:54:44.226Z,8.20
2017-11-08T01:57:11.811Z,8.06
2017-11-08T01:59:39.417Z,7.96
2017-11-08T02:02:07.063Z,7.98
2017-11-08T02:04:34.679Z,8.00
2017-11-08T02:07:02.259Z,8.03
2017-11-08T02:09:29.853Z,8.03
2017-11-08T02:11:57.427Z,8.15
2017-11-08T02:14:25.015Z,8.16
2017-11-08T02:16:52.586Z,8.16
2017-11-08T02:19:20.434Z,8.30
2017-11-08T02:21:48.078Z,8.24
2017-11-08T02:24:15.692Z,8.17
2017-11-08T02:26:43.261Z,8.11
2017-11-08T02:29:10.856Z,8.16
2017-11-08T02:31:38.453Z,8.16
2017-11-08T02:34:06.091Z,8.20
2017-11-08T02:36:33.693Z,8.20
2017-11-08T02:39:01.277Z,8.20
2017-11-08T02:41:32.305Z,8.18
2017-11-08T02:43:59.882Z,8.17
2017-11-08T02:46:27.471Z,8.19
2017-11-08T02:48:55.062Z,8.16
2017-11-08T02:51:22.660Z,8.18
2017-11-08T02:53:53.946Z,8.15
2017-11-08T02:56:21.935Z,8.08
2017-11-08T02:58:49.579Z,8.08
2017-11-08T03:01:18.095Z,8.11
2017-11-08T03:03:45.730Z,8.09
2017-11-08T03:06:13.387Z,8.08
2017-11-08T03:08:41.498Z,8.09
2017-11-08T03:11:09.498Z,7.96
2017-11-08T03:13:37.073Z,8.01
2017-11-08T03:16:04.655Z,8.03
2017-11-08T03:18:37.118Z,8.03
2017-11-08T03:21:04.759Z,7.93
2017-11-08T03:23:32.327Z,7.86
2017-11-08T03:25:59.915Z,7.86
2017-11-08T03:28:28.774Z,7.91
2017-11-08T03:30:56.331Z,7.95
2017-11-08T03:33:24.596Z,8.09
2017-11-08T03:35:52.277Z,8.08
2017-11-08T03:38:21.204Z,8.06
2017-11-08T03:40:48.780Z,8.06
2017-11-08T03:43:16.871Z,8.09
2017-11-08T03:45:44.483Z,8.11
2017-11-08T03:48:12.038Z,8.06
2017-11-08T03:50:39.635Z,8.03
2017-11-08T03:53:09.474Z,8.00
2017-11-08T03:55:37.126Z,7.88
2017-11-08T03:58:04.745Z,7.81
2017-11-08T04:00:32.316Z,7.73
2017-11-08T04:02:59.884Z,7.65
2017-11-08T04:05:27.466Z,7.49
2017-11-08T04:07:55.065Z,7.46
2017-11-08T04:10:22.695Z,7.59
2017-11-08T04:12:50.616Z,7.64
2017-11-08T04:15:38.414Z,7.59
2017-11-08T04:18:06.261Z,7.65
2017-11-08T04:20:33.874Z,7.85
2017-11-08T04:23:01.435Z,7.92
2017-11-08T04:25:29.832Z,7.88
2017-11-08T04:27:57.395Z,7.78
2017-11-08T04:30:25.014Z,7.72
2017-11-08T04:32:52.598Z,7.68
2017-11-08T04:35:20.176Z,7.63
2017-11-08T04:37:47.769Z,7.72
2017-11-08T04:40:15.360Z,7.73
2017-11-08T04:45:33.046Z,7.70
2017-11-08T04:48:00.603Z,7.71
2017-11-08T04:53:02.217Z,7.80
2017-11-08T04:55:29.974Z,7.79
2017-11-08T04:57:57.609Z,7.71
2017-11-08T05:00:25.667Z,7.77
2017-11-08T05:02:53.230Z,7.83
2017-11-08T05:05:20.849Z,7.87
2017-11-08T05:07:48.463Z,7.79
2017-11-08T05:10:16.038Z,7.72
2017-11-08T05:12:43.609Z,7.66
2017-11-08T05:15:11.369Z,7.60
2017-11-08T05:17:38.972Z,7.80
2017-11-08T05:20:07.042Z,7.94
2017-11-08T05:22:35.033Z,8.01
2017-11-08T05:25:03.088Z,8.02
2017-11-08T05:27:30.775Z,7.92
2017-11-08T05:29:58.327Z,7.90
2017-11-08T05:32:26.623Z,7.82
2017-11-08T05:34:54.250Z,7.88
2017-11-08T05:37:21.819Z,7.94
2017-11-08T05:39:49.455Z,7.94
2017-11-08T05:42:20.520Z,8.02
2017-11-08T05:44:48.214Z,7.99
2017-11-08T05:47:15.819Z,7.88
2017-11-08T05:49:43.458Z,7.82
2017-11-08T05:52:11.047Z,7.78
2017-11-08T05:54:38.631Z,7.79
2017-11-08T05:57:06.462Z,7.77
2017-11-08T05:59:34.025Z,7.78
2017-11-08T06:02:01.594Z,7.75
2017-11-08T06:04:44.914Z,7.70
2017-11-08T06:07:12.920Z,7.70
2017-11-08T06:09:40.493Z,7.75
2017-11-08T06:12:08.105Z,7.76
2017-11-08T06:14:35.872Z,7.74
2017-11-08T06:17:03.456Z,7.80
2017-11-08T06:19:31.039Z,7.75
2017-11-08T06:21:58.641Z,7.77
2017-11-08T06:24:26.240Z,7.71
2017-11-08T06:26:53.818Z,7.75
2017-11-08T06:29:21.390Z,7.64
2017-11-08T06:31:49.004Z,7.64
2017-11-08T06:34:16.562Z,7.68
2017-11-08T06:36:44.119Z,7.56
2017-11-08T06:39:11.965Z,7.69
2017-11-08T06:41:39.529Z,7.82
2017-11-08T06:44:07.090Z,7.79
2017-11-08T06:46:34.801Z,7.81
2017-11-08T06:49:02.390Z,7.82
2017-11-08T06:51:29.967Z,7.67
2017-11-08T06:53:57.582Z,7.63
2017-11-08T06:56:25.319Z,7.69
2017-11-08T07:01:43.211Z,7.67
2017-11-08T07:04:10.813Z,7.78
2017-11-08T07:06:38.397Z,7.84
2017-11-08T07:09:06.126Z,7.86
2017-11-08T07:11:33.878Z,7.81
2017-11-08T07:14:03.062Z,7.78
2017-11-08T07:16:30.633Z,7.83
2017-11-08T07:18:58.934Z,7.89
2017-11-08T07:21:26.569Z,7.84
2017-11-08T07:23:54.193Z,7.83
2017-11-08T07:29:20.085Z,7.61
2017-11-08T07:31:47.665Z,7.69
2017-11-08T07:34:15.266Z,7.73
2017-11-08T07:36:44.586Z,7.88
2017-11-08T07:39:12.177Z,7.97
2017-11-08T07:41:43.151Z,7.94
2017-11-08T07:44:11.193Z,7.91
2017-11-08T07:46:38.762Z,7.99
2017-11-08T07:49:06.457Z,7.91
2017-11-08T07:51:35.255Z,7.95
2017-11-08T07:57:00.899Z,8.01
2017-11-08T07:59:33.921Z,8.06
2017-11-08T08:02:01.542Z,8.04
2017-11-08T08:04:29.150Z,8.00
2017-11-08T08:06:56.732Z,7.83
2017-11-08T08:09:24.316Z,7.87
2017-11-08T08:11:51.910Z,7.89
2017-11-08T08:14:19.475Z,7.92
2017-11-08T08:16:47.072Z,7.86
2017-11-08T08:19:19.428Z,7.87
2017-11-08T08:21:46.974Z,7.74
2017-11-08T08:24:14.654Z,7.76
2017-11-08T08:26:47.847Z,7.70
2017-11-08T08:29:15.881Z,7.65
2017-11-08T08:31:43.449Z,7.52
2017-11-08T08:34:11.079Z,7.43
2017-11-08T08:36:38.651Z,7.52
2017-11-08T08:39:06.255Z,7.61
2017-11-08T08:41:34.666Z,7.50
2017-11-08T08:44:02.245Z,7.46
2017-11-08T08:46:32.075Z,7.45
2017-11-08T08:48:59.642Z,7.39
2017-11-08T08:51:28.764Z,7.20
2017-11-08T08:53:57.078Z,7.22
2017-11-08T08:56:24.781Z,7.30
2017-11-08T08:58:52.404Z,7.39
2017-11-08T09:01:20.178Z,7.48
2017-11-08T09:03:47.813Z,7.55
2017-11-08T09:06:15.558Z,7.57
2017-11-08T09:08:43.131Z,7.55
2017-11-08T09:11:10.714Z,7.55
2017-11-08T09:13:38.366Z,7.34
2017-11-08T09:16:05.987Z,7.38
2017-11-08T09:18:33.565Z,7.26
2017-11-08T09:21:01.163Z,7.19
2017-11-08T09:23:30.728Z,7.22
2017-11-08T09:25:58.379Z,7.12
2017-11-08T09:28:26.009Z,7.07
2017-11-08T09:30:54.023Z,6.95
2017-11-08T09:33:21.717Z,6.92
2017-11-08T09:35:49.333Z,6.94
2017-11-08T09:38:16.977Z,6.90
2017-11-08T09:40:44.623Z,6.93
2017-11-08T09:43:12.987Z,6.92
2017-11-08T09:45:40.562Z,6.79
2017-11-08T09:48:08.227Z,6.69
2017-11-08T09:50:35.822Z,6.75
2017-11-08T09:53:03.619Z,6.78
2017-11-08T09:55:31.912Z,6.81
2017-11-08T09:58:03.392Z,6.83
2017-11-08T10:00:30.984Z,6.93
2017-11-08T10:02:58.537Z,6.78
2017-11-08T10:05:32.663Z,6.91
2017-11-08T10:08:00.224Z,6.90
2017-11-08T10:10:30.603Z,6.90
2017-11-08T10:13:03.814Z,6.91
2017-11-08T10:15:31.414Z,6.88
2017-11-08T10:17:59.018Z,6.89
2017-11-08T10:20:27.287Z,6.91
2017-11-08T10:23:00.729Z,6.86
2017-11-08T10:25:28.369Z,6.85
2017-11-08T10:27:55.951Z,6.81
2017-11-08T10:30:23.515Z,6.82
2017-11-08T10:32:51.156Z,6.86
2017-11-08T10:35:18.715Z,6.96
2017-11-08T10:37:46.299Z,6.89
2017-11-08T10:40:13.885Z,6.91
2017-11-08T10:42:41.439Z,6.99
2017-11-08T10:45:09.124Z,6.95
2017-11-08T10:47:36.825Z,6.94
2017-11-08T10:50:04.402Z,6.85
2017-11-08T10:52:31.979Z,6.79
2017-11-08T10:54:59.640Z,6.74
2017-11-08T10:57:27.500Z,6.83
2017-11-08T10:59:55.803Z,6.80
2017-11-08T11:02:25.212Z,6.86
2017-11-08T11:04:52.832Z,6.80
2017-11-08T11:07:20.463Z,6.85
2017-11-08T11:09:50.543Z,6.83
2017-11-08T11:12:18.617Z,6.79
2017-11-08T11:14:46.244Z,6.86
2017-11-08T11:17:13.866Z,6.91
2017-11-08T11:19:47.132Z,6.83
2017-11-08T11:22:16.580Z,6.92
2017-11-08T11:25:06.414Z,6.95
2017-11-08T11:27:34.332Z,6.88
2017-11-08T11:30:03.725Z,6.95
2017-11-08T11:32:31.328Z,6.89
2017-11-08T11:34:58.921Z,6.93
2017-11-08T11:37:26.643Z,7.04
2017-11-08T11:39:54.237Z,6.95
2017-11-08T11:42:21.825Z,6.87
2017-11-08T11:44:49.535Z,6.76
2017-11-08T11:47:17.559Z,6.74
2017-11-08T11:49:45.136Z,6.75
2017-11-08T11:52:12.739Z,6.76
2017-11-08T11:54:40.352Z,6.74
2017-11-08T11:57:12.120Z,6.71
2017-11-08T11:59:39.913Z,6.73
2017-11-08T12:02:07.663Z,6.71
2017-11-08T12:04:35.278Z,6.76
2017-11-08T12:07:02.898Z,6.80
2017-11-08T12:09:30.540Z,6.80
2017-11-08T12:11:58.161Z,6.76
2017-11-08T12:14:25.757Z,6.75
2017-11-08T12:16:59.825Z,6.76
2017-11-08T12:19:27.486Z,6.81
2017-11-08T12:21:55.078Z,6.69
2017-11-08T12:24:22.669Z,6.67
2017-11-08T12:26:50.289Z,6.64
2017-11-08T12:29:17.911Z,6.57
2017-11-08T12:31:45.524Z,6.70
2017-11-08T12:34:13.115Z,6.81
2017-11-08T12:36:40.749Z,6.78
2017-11-08T12:39:08.383Z,6.78
2017-11-08T12:41:35.964Z,6.84
2017-11-08T12:44:03.558Z,6.97
2017-11-08T12:46:36.873Z,6.90
2017-11-08T12:49:04.581Z,6.84
2017-11-08T12:51:32.271Z,6.80
2017-11-08T12:53:59.904Z,6.70
2017-11-08T12:56:27.510Z,6.69
2017-11-08T12:58:55.083Z,6.65
2017-11-08T13:01:22.682Z,6.64
2017-11-08T13:03:50.277Z,6.74
2017-11-08T13:06:17.856Z,6.73
2017-11-08T13:08:45.458Z,6.83
2017-11-08T13:11:18.603Z,6.77
2017-11-08T13:13:46.225Z,6.76
2017-11-08T13:16:13.939Z,6.64
2017-11-08T13:18:41.666Z,6.60
2017-11-08T13:21:09.759Z,6.59
2017-11-08T13:23:37.431Z,6.69
2017-11-08T13:26:05.040Z,6.62
2017-11-08T13:28:32.659Z,6.56
2017-11-08T13:31:00.292Z,6.55
2017-11-08T13:33:28.250Z,6.50
2017-11-08T13:35:55.861Z,6.62
2017-11-08T13:38:23.464Z,6.59
2017-11-08T13:40:51.038Z,6.51
2017-11-08T13:43:18.659Z,6.49
2017-11-08T13:45:52.773Z,6.55
2017-11-08T13:48:20.341Z,6.76
2017-11-08T13:50:47.931Z,6.73
2017-11-08T13:53:15.626Z,6.63
2017-11-08T13:55:43.207Z,6.54
2017-11-08T13:58:10.822Z,6.60
2017-11-08T14:00:38.499Z,6.70
2017-11-08T14:05:57.162Z,6.67
2017-11-08T14:08:24.895Z,6.82
2017-11-08T14:10:52.486Z,6.90
2017-11-08T14:13:20.098Z,6.85
2017-11-08T14:15:47.710Z,6.80
2017-11-08T14:18:16.485Z,6.72
2017-11-08T14:20:44.079Z,6.80
2017-11-08T14:23:11.660Z,6.69
2017-11-08T14:25:39.234Z,6.60
2017-11-08T14:28:07.014Z,6.52
2017-11-08T14:30:34.559Z,6.51
2017-11-08T14:33:02.177Z,6.52
2017-11-08T14:35:31.381Z,6.68
2017-11-08T14:37:58.983Z,6.78
2017-11-08T14:40:26.933Z,6.70
2017-11-08T14:42:54.529Z,6.76
2017-11-08T14:45:22.197Z,6.61
2017-11-08T14:47:49.797Z,6.49
2017-11-08T14:50:17.711Z,6.55
2017-11-08T14:52:45.281Z,6.64
2017-11-08T14:55:12.850Z,6.51
2017-11-08T14:57:40.480Z,6.56
2017-11-08T15:00:08.077Z,6.44
2017-11-08T15:02:35.975Z,6.51
2017-11-08T15:05:03.598Z,6.44
2017-11-08T15:07:31.725Z,6.47
2017-11-08T15:10:00.592Z,6.49
2017-11-08T15:12:33.715Z,6.45
2017-11-08T15:15:03.113Z,6.45
2017-11-08T15:17:30.696Z,6.42
2017-11-08T15:19:59.990Z,6.42
2017-11-08T15:22:27.777Z,6.41
2017-11-08T15:24:55.892Z,6.31
2017-11-08T15:27:23.502Z,6.25
2017-11-08T15:30:08.673Z,6.23
2017-11-08T15:32:37.393Z,6.16
2017-11-08T15:35:04.981Z,6.11
2017-11-08T15:37:32.631Z,6.10
2017-11-08T15:40:00.264Z,6.11
2017-11-08T15:42:27.869Z,6.07
2017-11-08T15:44:55.431Z,6.14
2017-11-08T15:47:23.833Z,6.18
2017-11-08T15:49:51.411Z,6.27
2017-11-08T15:52:19.001Z,6.30
2017-11-08T15:54:46.582Z,6.20
2017-11-08T15:57:14.300Z,6.11
2017-11-08T15:59:41.929Z,6.04
2017-11-08T16:02:24.016Z,5.99
2017-11-08T16:04:51.631Z,5.99
2017-11-08T16:07:19.224Z,5.99
2017-11-08T16:09:46.798Z,6.00
2017-11-08T16:15:05.808Z,6.20
2017-11-08T16:17:33.389Z,6.24
2017-11-08T16:20:00.960Z,6.39
2017-11-08T16:22:29.013Z,6.48
2017-11-08T16:24:56.826Z,6.49
2017-11-08T16:27:25.386Z,6.45
2017-11-08T16:29:53.001Z,6.51
2017-11-08T16:32:22.023Z,6.54
2017-11-08T16:34:49.609Z,6.51
2017-11-08T16:37:17.196Z,6.56
2017-11-08T16:39:44.825Z,6.53
2017-11-08T16:42:12.385Z,6.50
2017-11-08T16:44:40.008Z,6.43
2017-11-08T16:47:07.769Z,6.44
2017-11-08T16:49:35.416Z,6.43
2017-11-08T16:52:02.988Z,6.39
2017-11-08T16:54:30.569Z,6.45
2017-11-08T16:56:58.137Z,6.42
2017-11-08T16:59:25.786Z,6.34
2017-11-08T17:01:53.347Z,6.26
2017-11-08T17:04:21.969Z,6.19
2017-11-08T17:06:49.576Z,6.25
2017-11-08T17:09:17.154Z,6.23
2017-11-08T17:11:44.770Z,6.24
2017-11-08T17:14:12.368Z,6.21
2017-11-08T17:16:39.963Z,6.17
2017-11-08T17:19:07.611Z,6.25
2017-11-08T17:21:35.230Z,6.33
2017-11-08T17:24:02.803Z,6.49
2017-11-08T17:26:30.401Z,6.53
2017-11-08T17:28:58.010Z,6.46
2017-11-08T17:31:25.616Z,6.39
2017-11-08T17:33:53.196Z,6.29
2017-11-08T17:36:21.537Z,6.22
2017-11-08T17:41:40.129Z,6.15
2017-11-08T17:44:07.693Z,6.16
2017-11-08T17:46:35.284Z,6.14
2017-11-08T17:49:02.915Z,6.19
2017-11-08T17:51:30.635Z,6.21
2017-11-08T17:53:58.206Z,6.36
2017-11-08T17:56:25.829Z,6.50
2017-11-08T17:58:53.391Z,6.54
2017-11-08T18:01:20.974Z,6.62
2017-11-08T18:03:48.603Z,6.70
2017-11-08T18:06:16.173Z,6.73
2017-11-08T18:08:43.771Z,6.69
2017-11-08T18:11:12.110Z,6.69
2017-11-08T18:13:58.726Z,6.56
2017-11-08T18:16:26.310Z,6.49
2017-11-08T18:18:53.871Z,6.42
2017-11-08T18:21:21.455Z,6.36
2017-11-08T18:23:49.019Z,6.31
2017-11-08T18:26:16.660Z,6.23
2017-11-08T18:28:44.285Z,6.34
2017-11-08T18:31:12.012Z,6.46
2017-11-08T18:33:39.580Z,6.58
2017-11-08T18:36:07.192Z,6.50
2017-11-08T18:38:34.766Z,6.41
2017-11-08T18:41:02.354Z,6.38
2017-11-08T18:43:29.931Z,6.40
2017-11-08T18:45:57.548Z,6.27
2017-11-08T18:48:25.111Z,6.21
2017-11-08T18:50:52.702Z,6.16
2017-11-08T18:53:20.290Z,6.13
2017-11-08T18:55:47.844Z,6.07
2017-11-08T18:58:15.491Z,6.07
2017-11-08T19:00:43.067Z,6.00
2017-11-08T19:03:10.780Z,5.97
2017-11-08T19:05:38.420Z,6.09
2017-11-08T19:08:06.030Z,6.27
2017-11-08T19:10:33.640Z,6.40
2017-11-08T19:13:01.217Z,6.46
2017-11-08T19:15:28.862Z,6.52
2017-11-08T19:17:56.418Z,6.61
2017-11-08T19:20:23.996Z,6.57
2017-11-08T19:22:52.277Z,6.36
2017-11-08T19:25:21.130Z,6.23
2017-11-08T19:27:48.856Z,6.15
2017-11-08T19:30:16.479Z,6.07
2017-11-08T19:32:44.635Z,5.99
2017-11-08T19:35:12.310Z,6.09
2017-11-08T19:37:40.050Z,6.20
2017-11-08T19:40:07.652Z,6.17
2017-11-08T19:42:35.247Z,6.04
2017-11-08T19:45:02.972Z,5.98
2017-11-08T19:47:30.579Z,5.99
2017-11-08T19:49:58.136Z,6.06
2017-11-08T19:52:25.821Z,6.22
2017-11-08T19:54:53.483Z,6.26
2017-11-08T19:57:21.306Z,6.17
2017-11-08T19:59:48.912Z,6.05
2017-11-08T20:02:16.508Z,5.96
2017-11-08T20:04:44.059Z,5.90
2017-11-08T20:07:11.717Z,5.95
2017-11-08T20:09:39.314Z,6.01
2017-11-08T20:12:06.874Z,5.95
2017-11-08T20:14:34.480Z,6.02
2017-11-08T20:17:02.070Z,6.11
2017-11-08T20:19:30.653Z,6.19
2017-11-08T20:21:58.302Z,6.24
2017-11-08T20:24:25.863Z,6.24
2017-11-08T20:26:53.464Z,6.20
2017-11-08T20:29:21.076Z,6.19
2017-11-08T20:31:48.632Z,6.25
2017-11-08T20:34:16.197Z,6.34
2017-11-08T20:36:43.796Z,6.32
2017-11-08T20:39:11.354Z,6.16
2017-11-08T20:41:38.948Z,6.05
2017-11-08T20:44:06.522Z,5.98
2017-11-08T20:46:34.100Z,5.95
2017-11-08T20:49:01.661Z,5.88
2017-11-08T20:51:29.238Z,5.77
2017-11-08T20:53:56.856Z,5.68
2017-11-08T20:56:24.970Z,5.68
2017-11-08T20:58:52.530Z,5.71
2017-11-08T21:01:20.279Z,5.66
2017-11-08T21:03:47.857Z,5.73
2017-11-08T21:06:15.494Z,5.70
2017-11-08T21:08:43.110Z,5.59
2017-11-08T21:11:10.662Z,5.55
2017-11-08T21:13:38.252Z,5.50
2017-11-08T21:16:05.829Z,5.49
2017-11-08T21:18:33.410Z,5.51
2017-11-08T21:21:00.990Z,5.58
2017-11-08T21:23:28.559Z,5.63
2017-11-08T21:25:56.161Z,5.67
2017-11-08T21:28:23.743Z,5.64
2017-11-08T21:30:51.320Z,5.68
2017-11-08T21:33:19.170Z,5.63
2017-11-08T21:35:46.756Z,5.57
2017-11-08T21:38:14.367Z,5.54
2017-11-08T21:40:42.381Z,5.53
2017-11-08T21:43:10.243Z,5.64
2017-11-08T21:45:37.897Z,5.60
2017-11-08T21:48:05.527Z,5.62
2017-11-08T21:50:33.775Z,5.62
2017-11-08T21:53:01.359Z,5.57
2017-11-08T21:55:28.990Z,5.54
2017-11-08T21:57:56.550Z,5.56
2017-11-08T22:00:24.136Z,5.50
2017-11-08T22:02:51.720Z,5.44
2017-11-08T22:05:19.307Z,5.51
2017-11-08T22:07:46.864Z,5.37
2017-11-08T22:10:14.549Z,5.29
2017-11-08T22:12:43.068Z,5.19
2017-11-08T22:15:11.035Z,5.09
2017-11-08T22:17:38.629Z,5.03
2017-11-08T22:20:06.251Z,4.97
2017-11-08T22:22:33.791Z,4.91
2017-11-08T22:25:01.411Z,4.88
2017-11-08T22:30:19.225Z,4.70
2017-11-08T22:32:46.793Z,4.60
2017-11-08T22:35:14.373Z,4.55
2017-11-08T22:37:41.983Z,4.53
2017-11-08T22:40:09.570Z,4.64
2017-11-08T22:42:37.165Z,4.68
2017-11-08T22:45:05.128Z,4.69
2017-11-08T22:47:32.700Z,4.72
2017-11-08T22:50:00.282Z,4.73
2017-11-08T22:52:27.881Z,4.79
2017-11-08T22:54:55.487Z,4.82
2017-11-08T22:57:23.092Z,4.72
2017-11-08T22:59:50.718Z,4.75
2017-11-08T23:02:18.353Z,4.67
2017-11-08T23:04:45.994Z,4.65
2017-11-08T23:07:14.542Z,4.65
2017-11-08T23:09:42.165Z,4.67
2017-11-08T23:12:09.794Z,4.60
2017-11-08T23:14:37.387Z,4.62
2017-11-08T23:17:07.035Z,4.65
2017-11-08T23:19:34.662Z,4.65
2017-11-08T23:22:02.366Z,4.57
2017-11-08T23:24:30.063Z,4.53
2017-11-08T23:26:57.697Z,4.42
2017-11-08T23:29:25.391Z,4.38
2017-11-08T23:31:52.995Z,4.33
2017-11-08T23:34:20.578Z,4.31
2017-11-08T23:36:49.275Z,4.29
2017-11-08T23:39:17.176Z,4.20
2017-11-08T23:41:44.756Z,4.05
2017-11-08T23:44:14.021Z,3.93
2017-11-08T23:46:41.657Z,3.87
2017-11-08T23:49:09.320Z,3.78
2017-11-08T23:51:36.897Z,3.67
2017-11-08T23:54:04.784Z,3.53
2017-11-08T23:56:32.431Z,3.41
2017-11-08T23:59:02.059Z,3.33
